Baltic Frost — 9HA2868 — position and weather

sailwx.info

Track history (hours):
 
Tides and Currents Weather Stations Pressure Air Temp Water Temp Dewpoint Dewpoint Depression Visibility Wind Speed Wind Dir Waves Ship Positions

Baltic Frost

Last reported at 2017-Mar-27 00:33 UTC. Time now 2017-Mar-27 00:53 UTC.
Position N 51°29' E 002°14'.

Length 183 m; draft 7.4 m.

Type: Ship. MMSI: 256495000.

Date/timePositionNaut miles runAvg speedWind from/ knotsBaromVisibWave heightAir tempDewpointWater temp
2017-Mar-27 00:33N 51°29' E 002°14'1615.7
2017-Mar-26 23:33N 51°14' E 002°05'1615.5
2017-Mar-26 22:33N 51°06' E 001°45'1515.4
2017-Mar-26 21:33N 50°54' E 001°29'1514.0
2017-Mar-26 20:30N 50°40' E 001°20'4013.4
2017-Mar-26 17:33N 50°24' E 000°23'1212.6
2017-Mar-26 16:33N 50°21' E 000°04'1212.1
2017-Mar-26 15:33N 50°18' W 000°14'1211.5
2017-Mar-26 14:33N 50°15' W 000°32'1110.8
2017-Mar-26 13:33N 50°12' W 000°48'1110.1
2017-Mar-26 12:28N 50°09' W 001°05'910.2
2017-Mar-26 11:33N 50°07' W 001°19'1111.0
2017-Mar-26 10:33N 50°04' W 001°35'1212.0
2017-Mar-26 09:33N 50°01' W 001°53'5313.3
2017-Mar-26 05:34N 49°50' W 003°14'1212.4
2017-Mar-26 04:33N 49°50' W 003°33'9611.8
2017-Mar-25 20:27N 50°02' W 006°01'1415.6
2017-Mar-25 19:33N 50°16' W 006°01'1515.4
2017-Mar-25 18:33N 50°30' W 005°55'1515.2
2017-Mar-25 17:33N 50°45' W 005°46'1514.6
2017-Mar-25 16:33N 50°58' W 005°38'1414.2
2017-Mar-25 15:33N 51°11' W 005°30'1914.3
2017-Mar-25 14:15N 51°29' W 005°19'1014.5
2017-Mar-25 13:33N 51°38' W 005°12'  
2017-Mar-23 08:31N 51°20' W 005°23'1412.9
2017-Mar-23 07:26N 51°06' W 005°29'1112.8
2017-Mar-23 06:33N 50°56' W 005°35'1312.7
2017-Mar-23 05:33N 50°43' W 005°41'1312.6
2017-Mar-23 04:33N 50°31' W 005°47'1312.6
2017-Mar-23 03:32N 50°19' W 005°53'70 9.6
2017-Mar-22 20:15N 49°53' W 004°13'1113.1
2017-Mar-22 19:23N 49°54' W 003°55'1113.1
2017-Mar-22 18:33N 49°55' W 003°38'1312.8
2017-Mar-22 17:34N 49°57' W 003°19'1212.4
2017-Mar-22 16:34N 49°58' W 002°60'4111.7
2017-Mar-22 13:04N 50°09' W 001°58'611.8
2017-Mar-22 12:33N 50°11' W 001°49'1212.1
2017-Mar-22 11:32N 50°14' W 001°31'4912.5
2017-Mar-22 07:34N 50°28' W 000°16'1312.5
2017-Mar-22 06:34N 50°31' E 000°03'1212.1
2017-Mar-22 05:33N 50°34' E 000°21'1211.6
2017-Mar-22 04:33N 50°39' E 000°38'1111.5
2017-Mar-22 03:34N 50°46' E 000°52'1712.0
2017-Mar-22 02:07N 50°57' E 001°13'712.8
2017-Mar-22 01:34N 51°01' E 001°22'1313.2
2017-Mar-22 00:33N 51°10' E 001°38'1312.8
2017-Mar-21 23:33N 51°20' E 001°50'1212.4
2017-Mar-21 22:33N 51°31' E 002°01'1212.1
2017-Mar-21 21:33N 51°40' E 002°14'22411.8
2017-Mar-21 02:32N 54°53' E 005°23'1212.2
2017-Mar-21 01:32N 55°03' E 005°34'23611.8
2017-Mar-20 05:33N 57°48' E 010°39'1211.7
2017-Mar-20 04:33N 57°42' E 010°58'1312.7
2017-Mar-20 03:32N 57°34' E 011°15'1212.3
2017-Mar-20 02:33N 57°24' E 011°29'1313.0
2017-Mar-20 01:33N 57°12' E 011°37'12212.1
2017-Mar-19 15:30N 55°11' E 011°03'1111.5
2017-Mar-19 14:33N 55°01' E 010°59'1111.3
2017-Mar-19 13:33N 54°50' E 010°50'1010.4
2017-Mar-19 12:34N 54°40' E 010°48'1211.6
2017-Mar-19 11:33N 54°36' E 011°07'1212.5
2017-Mar-19 10:33N 54°31' E 011°27'1313.4
2017-Mar-19 09:33N 54°27' E 011°48'1313.1
2017-Mar-19 08:33N 54°27' E 012°11'1312.9
2017-Mar-19 07:33N 54°38' E 012°22'2812.3
2017-Mar-19 05:15N 54°52' E 013°05'2212.4
2017-Mar-19 03:31N 54°59' E 013°40'1313.0
2017-Mar-19 02:32N 55°03' E 014°01'1313.3
2017-Mar-19 01:33N 55°13' E 014°16'1413.8
2017-Mar-19 00:33N 55°24' E 014°32'1313.2
2017-Mar-18 23:33N 55°31' E 014°50'1313.0
2017-Mar-18 22:34N 55°38' E 015°11'1312.8
2017-Mar-18 21:33N 55°41' E 015°33'1313.2
2017-Mar-18 20:33N 55°44' E 015°55'1413.5
2017-Mar-18 19:33N 55°47' E 016°18'1313.3
2017-Mar-18 18:34N 55°51' E 016°41'30512.1
2017-Mar-17 17:18N 59°36' E 023°07'912.3
2017-Mar-17 16:33N 59°39' E 023°24'1212.2
2017-Mar-17 15:34N 59°42' E 023°47'8412.0
2017-Mar-17 08:33N 60°01' E 026°30'2611.6
2017-Mar-17 06:18N 60°05' E 027°22'1212.2
2017-Mar-17 05:18N 60°09' E 027°45'911.1
2017-Mar-17 04:31N 60°09' E 028°03'8 8.3
2017-Mar-17 03:33N 60°07' E 028°18'9 9.3
2017-Mar-17 02:33N 60°02' E 028°34'7 6.8
2017-Mar-17 01:33N 59°55' E 028°33'  
Track history (hours):
 
Tides and Currents Weather Stations Pressure Air Temp Water Temp Dewpoint Dewpoint Depression Visibility Wind Speed Wind Dir Waves Ship Positions

Baltic Frost

Last reported at 2017-Mar-27 00:33 UTC. Time now 2017-Mar-27 00:53 UTC.
Position N 51°29' E 002°14'.

Length 183 m; draft 7.4 m.

Type: Ship. MMSI: 256495000.

Date/timePositionNaut miles runAvg speedWind from/ knotsBaromVisibWave heightAir tempDewpointWater temp
2017-Mar-27 00:33N 51°29' E 002°14'1615.7
2017-Mar-26 23:33N 51°14' E 002°05'1615.5
2017-Mar-26 22:33N 51°06' E 001°45'1515.4
2017-Mar-26 21:33N 50°54' E 001°29'1514.0
2017-Mar-26 20:30N 50°40' E 001°20'4013.4
2017-Mar-26 17:33N 50°24' E 000°23'1212.6
2017-Mar-26 16:33N 50°21' E 000°04'1212.1
2017-Mar-26 15:33N 50°18' W 000°14'1211.5
2017-Mar-26 14:33N 50°15' W 000°32'1110.8
2017-Mar-26 13:33N 50°12' W 000°48'1110.1
2017-Mar-26 12:28N 50°09' W 001°05'910.2
2017-Mar-26 11:33N 50°07' W 001°19'1111.0
2017-Mar-26 10:33N 50°04' W 001°35'1212.0
2017-Mar-26 09:33N 50°01' W 001°53'5313.3
2017-Mar-26 05:34N 49°50' W 003°14'1212.4
2017-Mar-26 04:33N 49°50' W 003°33'9611.8
2017-Mar-25 20:27N 50°02' W 006°01'1415.6
2017-Mar-25 19:33N 50°16' W 006°01'1515.4
2017-Mar-25 18:33N 50°30' W 005°55'1515.2
2017-Mar-25 17:33N 50°45' W 005°46'1514.6
2017-Mar-25 16:33N 50°58' W 005°38'1414.2
2017-Mar-25 15:33N 51°11' W 005°30'1914.3
2017-Mar-25 14:15N 51°29' W 005°19'1014.5
2017-Mar-25 13:33N 51°38' W 005°12'  
2017-Mar-23 08:31N 51°20' W 005°23'1412.9
2017-Mar-23 07:26N 51°06' W 005°29'1112.8
2017-Mar-23 06:33N 50°56' W 005°35'1312.7
2017-Mar-23 05:33N 50°43' W 005°41'1312.6
2017-Mar-23 04:33N 50°31' W 005°47'1312.6
2017-Mar-23 03:32N 50°19' W 005°53'70 9.6
2017-Mar-22 20:15N 49°53' W 004°13'1113.1
2017-Mar-22 19:23N 49°54' W 003°55'1113.1
2017-Mar-22 18:33N 49°55' W 003°38'1312.8
2017-Mar-22 17:34N 49°57' W 003°19'1212.4
2017-Mar-22 16:34N 49°58' W 002°60'4111.7
2017-Mar-22 13:04N 50°09' W 001°58'611.8
2017-Mar-22 12:33N 50°11' W 001°49'1212.1
2017-Mar-22 11:32N 50°14' W 001°31'4912.5
2017-Mar-22 07:34N 50°28' W 000°16'1312.5
2017-Mar-22 06:34N 50°31' E 000°03'1212.1
2017-Mar-22 05:33N 50°34' E 000°21'1211.6
2017-Mar-22 04:33N 50°39' E 000°38'1111.5
2017-Mar-22 03:34N 50°46' E 000°52'1712.0
2017-Mar-22 02:07N 50°57' E 001°13'712.8
2017-Mar-22 01:34N 51°01' E 001°22'1313.2
2017-Mar-22 00:33N 51°10' E 001°38'1312.8
2017-Mar-21 23:33N 51°20' E 001°50'1212.4
2017-Mar-21 22:33N 51°31' E 002°01'1212.1
2017-Mar-21 21:33N 51°40' E 002°14'22411.8
2017-Mar-21 02:32N 54°53' E 005°23'1212.2
2017-Mar-21 01:32N 55°03' E 005°34'23611.8
2017-Mar-20 05:33N 57°48' E 010°39'1211.7
2017-Mar-20 04:33N 57°42' E 010°58'1312.7
2017-Mar-20 03:32N 57°34' E 011°15'1212.3
2017-Mar-20 02:33N 57°24' E 011°29'1313.0
2017-Mar-20 01:33N 57°12' E 011°37'12212.1
2017-Mar-19 15:30N 55°11' E 011°03'1111.5
2017-Mar-19 14:33N 55°01' E 010°59'1111.3
2017-Mar-19 13:33N 54°50' E 010°50'1010.4
2017-Mar-19 12:34N 54°40' E 010°48'1211.6
2017-Mar-19 11:33N 54°36' E 011°07'1212.5
2017-Mar-19 10:33N 54°31' E 011°27'1313.4
2017-Mar-19 09:33N 54°27' E 011°48'1313.1
2017-Mar-19 08:33N 54°27' E 012°11'1312.9
2017-Mar-19 07:33N 54°38' E 012°22'2812.3
2017-Mar-19 05:15N 54°52' E 013°05'2212.4
2017-Mar-19 03:31N 54°59' E 013°40'1313.0
2017-Mar-19 02:32N 55°03' E 014°01'1313.3
2017-Mar-19 01:33N 55°13' E 014°16'1413.8
2017-Mar-19 00:33N 55°24' E 014°32'1313.2
2017-Mar-18 23:33N 55°31' E 014°50'1313.0
2017-Mar-18 22:34N 55°38' E 015°11'1312.8
2017-Mar-18 21:33N 55°41' E 015°33'1313.2
2017-Mar-18 20:33N 55°44' E 015°55'1413.5
2017-Mar-18 19:33N 55°47' E 016°18'1313.3
2017-Mar-18 18:34N 55°51' E 016°41'30512.1
2017-Mar-17 17:18N 59°36' E 023°07'912.3
2017-Mar-17 16:33N 59°39' E 023°24'1212.2
2017-Mar-17 15:34N 59°42' E 023°47'8412.0
2017-Mar-17 08:33N 60°01' E 026°30'2611.6
2017-Mar-17 06:18N 60°05' E 027°22'1212.2
2017-Mar-17 05:18N 60°09' E 027°45'911.1
2017-Mar-17 04:31N 60°09' E 028°03'8 8.3
2017-Mar-17 03:33N 60°07' E 028°18'9 9.3
2017-Mar-17 02:33N 60°02' E 028°34'7 6.8
2017-Mar-17 01:33N 59°55' E 028°33'  

Dump ship's entire track history